Clarks Hill, South Carolina
Current Conditions -  °F | °C
As of 2:53 PM on Sunday 23 Nov 2014 (Local Time) from KDNL Reporting Station
Light Rain Light Rain  
Wind Chill: 61°   Ceiling: 300
Heat Index: 61°   Visibility: 5mi
Dew Point: 60°   Wind: 8mph
Humidity: 97%   Direction: 110°ESE
Pressure: 29.85"   Gusts: NA
Location:  33.67°N, 82.17°W
Report Text: KDNL 231953Z AUTO 11007KT 5SM -RA BR OVC003 16/16 A2985 RMK AO2 SLP107 P0000 T01610156
Loading
Personal Weather Stations






























Interactive Weather Map New forecast layout! Learn more

10-Day Weather Forecast

Advertisements
Track Severe Weather on mobile